Time;durP1;ratioP1;P1;durP2;ratioP2;P2;SDS_P1;SDS_P2;PMS_P1;PMS_P2;Temp;Humidity;BMP_temperature;BMP_pressure;BME280_temperature;BME280_humidity;BME280_pressure;Samples;Min_cycle;Max_cycle;Signal;HPM_P1;HPM_P2
2023/11/07 00:00:29;;;;;;;3.50;1.97;;;8.10;99.90;;;8.67;98.73;97600.22;10426505;28;20220;-65
2023/11/07 00:05:33;;;;;;;2.50;2.30;;;7.90;99.90;;;8.46;98.85;97605.78;10418204;28;20309;-63
2023/11/07 00:10:37;;;;;;;2.80;2.27;;;7.70;99.90;;;8.26;99.33;97606.22;10422193;28;20244;-63
2023/11/07 00:15:42;;;;;;;2.53;2.00;;;7.50;99.90;;;8.25;98.69;97599.38;10431934;28;20232;-63
2023/11/07 00:20:45;;;;;;;2.57;2.37;;;7.50;99.90;;;8.40;98.22;97604.53;10435059;28;20224;-64
2023/11/07 00:25:48;;;;;;;2.43;2.10;;;7.60;99.90;;;8.01;99.91;97602.16;10430305;28;20249;-65
2023/11/07 00:30:53;;;;;;;1.97;1.87;;;7.30;99.90;;;8.23;100.00;97606.03;10426396;28;20245;-64
2023/11/07 00:35:56;;;;;;;2.67;2.43;;;7.20;99.90;;;7.91;100.00;97617.63;10435916;28;20323;-63
2023/11/07 00:40:59;;;;;;;2.10;2.00;;;7.10;99.90;;;7.71;100.00;97618.03;10425035;28;20993;-64
2023/11/07 00:46:04;;;;;;;2.40;2.23;;;7.00;99.90;;;7.53;100.00;97608.44;10428043;28;20290;-70
2023/11/07 00:51:08;;;;;;;2.40;2.20;;;6.80;99.90;;;7.50;100.00;97613.31;10430642;28;20237;-64
2023/11/07 00:56:11;;;;;;;2.53;2.30;;;6.70;99.90;;;7.36;100.00;97612.41;10440795;28;20237;-62
2023/11/07 01:01:16;;;;;;;2.20;2.00;;;6.60;99.90;;;7.23;100.00;97623.44;10440057;28;20233;-64
2023/11/07 01:06:20;;;;;;;2.50;2.30;;;6.50;99.90;;;7.03;100.00;97617.81;10438388;28;20217;-63
2023/11/07 01:11:23;;;;;;;2.40;2.13;;;6.40;99.90;;;7.05;100.00;97606.97;10432721;28;20229;-63
2023/11/07 01:16:27;;;;;;;2.03;1.93;;;6.40;99.90;;;7.12;100.00;97613.34;10435956;28;20693;-63
2023/11/07 01:21:31;;;;;;;2.80;2.33;;;6.50;99.90;;;7.27;100.00;97613.44;10432972;28;20233;-64
2023/11/07 01:26:34;;;;;;;2.20;2.10;;;6.60;99.90;;;7.26;100.00;97614.25;10427805;28;20578;-64
2023/11/07 01:31:38;;;;;;;2.50;2.00;;;6.60;99.90;;;7.25;100.00;97617.59;10432372;28;20233;-64
2023/11/07 01:36:41;;;;;;;1.90;1.80;;;6.60;99.90;;;7.31;100.00;97621.41;10433392;28;20229;-64
2023/11/07 01:41:45;;;;;;;3.17;2.30;;;6.70;99.90;;;7.13;100.00;97622.75;10428534;28;20240;-64
2023/11/07 01:46:50;;;;;;;2.50;2.40;;;6.60;99.90;;;7.17;100.00;97617.94;10431643;28;20287;-64
2023/11/07 01:51:57;;;;;;;2.30;2.20;;;6.50;99.90;;;7.21;100.00;97621.56;10431884;28;20325;-63
2023/11/07 01:57:00;;;;;;;2.33;2.13;;;6.40;99.90;;;6.91;100.00;97610.25;10431160;28;20225;-63
2023/11/07 02:02:10;;;;;;;2.10;1.97;;;6.20;99.90;;;6.78;100.00;97613.63;10432099;28;20275;-65
2023/11/07 02:07:13;;;;;;;2.60;2.27;;;6.10;99.90;;;6.64;100.00;97625.41;10437978;28;20322;-64
2023/11/07 02:12:16;;;;;;;2.30;2.10;;;6.00;99.90;;;6.57;100.00;97627.41;10432323;28;20229;-64
2023/11/07 02:17:21;;;;;;;2.30;2.20;;;5.90;99.90;;;6.49;100.00;97626.88;10431388;28;20577;-64
2023/11/07 02:22:26;;;;;;;2.53;2.40;;;5.80;99.90;;;6.44;100.00;97633.28;10436218;28;20236;-64
2023/11/07 02:27:30;;;;;;;3.10;2.90;;;5.80;99.90;;;6.45;100.00;97633.41;10429215;28;20221;-64
2023/11/07 02:32:34;;;;;;;3.70;3.37;;;5.80;99.90;;;6.40;100.00;97627.13;10433581;28;20221;-66
2023/11/07 02:37:37;;;;;;;3.73;3.43;;;5.70;99.90;;;6.41;100.00;97628.91;10435551;28;20296;-63
2023/11/07 02:42:42;;;;;;;3.60;2.87;;;5.70;99.90;;;6.31;100.00;97627.38;10432059;28;20236;-64
2023/11/07 02:47:45;;;;;;;2.57;2.37;;;5.60;99.90;;;6.23;100.00;97628.47;10432222;28;20747;-63
2023/11/07 02:52:48;;;;;;;2.87;2.60;;;5.50;99.90;;;6.08;100.00;97628.31;10435068;28;20594;-64
2023/11/07 02:57:52;;;;;;;3.40;2.70;;;5.40;99.90;;;5.96;100.00;97629.09;10430268;28;20239;-63
2023/11/07 03:02:56;;;;;;;2.47;2.37;;;5.30;99.90;;;6.01;100.00;97626.13;10430743;28;20225;-64
2023/11/07 03:07:59;;;;;;;2.67;2.47;;;5.40;99.90;;;6.25;100.00;97637.09;10435839;28;20606;-65
2023/11/07 03:13:04;;;;;;;2.50;2.40;;;5.50;99.90;;;6.41;100.00;97640.69;10429988;28;20228;-64
2023/11/07 03:18:07;;;;;;;2.70;2.50;;;5.60;99.90;;;6.41;100.00;97643.22;10423531;28;20252;-65
2023/11/07 03:23:10;;;;;;;2.83;2.10;;;5.70;99.90;;;6.43;100.00;97641.69;10431966;28;20224;-64
2023/11/07 03:28:20;;;;;;;2.13;1.93;;;5.70;99.90;;;6.47;100.00;97646.22;10432339;28;20324;-65
2023/11/07 03:33:23;;;;;;;1.80;1.70;;;5.70;99.90;;;6.47;100.00;97638.59;10432612;28;20229;-64
2023/11/07 03:38:27;;;;;;;2.03;1.93;;;5.80;99.90;;;6.32;100.00;97634.22;10430227;28;20231;-64
2023/11/07 03:43:33;;;;;;;2.43;2.23;;;5.70;99.90;;;6.38;100.00;97633.78;10433343;28;20217;-64
2023/11/07 03:48:36;;;;;;;1.80;1.70;;;5.80;99.90;;;6.54;100.00;97638.22;10426836;28;20693;-64
2023/11/07 03:53:40;;;;;;;2.73;1.83;;;5.80;99.90;;;6.37;100.00;97631.13;10431660;28;20225;-65
2023/11/07 03:58:44;;;;;;;12.43;7.77;;;5.70;99.90;;;6.26;100.00;97630.34;10435916;28;20229;-63
2023/11/07 04:03:47;;;;;;;2.40;2.20;;;5.60;99.90;;;6.06;100.00;97637.44;10431035;28;20308;-65
2023/11/07 04:08:51;;;;;;;2.40;2.20;;;5.50;99.90;;;6.15;100.00;97639.75;10422058;28;20233;-64
2023/11/07 04:13:56;;;;;;;2.17;2.07;;;5.60;99.90;;;6.25;100.00;97642.16;10431941;28;20256;-65
2023/11/07 04:19:00;;;;;;;2.83;2.17;;;5.60;99.90;;;6.20;100.00;97648.56;10427186;28;20231;-64
2023/11/07 04:24:04;;;;;;;1.70;1.60;;;5.50;99.90;;;6.25;100.00;97644.72;10432575;28;20251;-66
2023/11/07 04:29:09;;;;;;;2.83;1.90;;;5.60;99.90;;;6.16;100.00;97645.72;10432688;28;20732;-65
2023/11/07 04:34:12;;;;;;;2.33;2.13;;;5.50;99.90;;;5.98;100.00;97650.38;10415930;28;20233;-64
2023/11/07 04:39:15;;;;;;;2.13;2.00;;;5.30;99.90;;;6.08;100.00;97652.78;10423209;28;20243;-63
2023/11/07 04:44:20;;;;;;;3.17;2.27;;;5.40;99.90;;;5.96;100.00;97657.00;10426512;28;20217;-63
2023/11/07 04:49:24;;;;;;;2.77;2.30;;;5.30;99.90;;;5.95;100.00;97638.38;10427685;28;20225;-63
2023/11/07 04:54:27;;;;;;;2.10;2.00;;;5.40;99.90;;;5.97;100.00;97641.00;10424760;28;20220;-63
2023/11/07 04:59:32;;;;;;;2.63;2.23;;;5.40;99.90;;;5.98;100.00;97645.28;10432414;28;20236;-63
2023/11/07 05:04:36;;;;;;;2.17;2.00;;;5.40;99.90;;;5.94;100.00;97645.84;10426454;28;20226;-64
2023/11/07 05:09:40;;;;;;;3.23;2.80;;;5.30;99.90;;;5.95;100.00;97640.91;10435427;28;20252;-64
2023/11/07 05:14:44;;;;;;;3.43;2.17;;;5.30;99.90;;;5.96;100.00;97644.31;10429839;28;20244;-64
2023/11/07 05:19:48;;;;;;;2.73;2.03;;;5.40;99.90;;;6.14;100.00;97644.72;10422187;28;20748;-64
2023/11/07 05:24:51;;;;;;;2.57;2.37;;;5.50;99.90;;;6.30;100.00;97651.00;10424585;28;20244;-64
2023/11/07 05:29:56;;;;;;;3.07;2.83;;;5.60;99.90;;;6.32;100.00;97653.63;10437594;28;20609;-65
2023/11/07 05:34:59;;;;;;;2.80;2.60;;;5.60;99.90;;;6.26;100.00;97651.53;10416803;28;20222;-63
2023/11/07 05:40:04;;;;;;;2.77;2.57;;;5.70;99.90;;;6.14;100.00;97648.16;10426059;28;20233;-63
2023/11/07 05:45:10;;;;;;;3.00;2.33;;;5.50;99.90;;;6.04;100.00;97645.75;10428512;28;20221;-64
2023/11/07 05:50:13;;;;;;;2.43;2.33;;;5.40;99.90;;;6.02;100.00;97657.44;10431966;28;20236;-65
2023/11/07 05:55:17;;;;;;;3.30;2.97;;;5.40;99.90;;;5.97;100.00;97661.28;10442682;28;20723;-63
2023/11/07 06:00:21;;;;;;;2.90;2.63;;;5.30;99.90;;;5.75;100.00;97662.28;10444048;28;20608;-64
2023/11/07 06:05:24;;;;;;;3.20;3.00;;;5.10;99.90;;;5.81;100.00;97666.91;10425544;28;20692;-64
2023/11/07 06:10:28;;;;;;;4.63;3.30;;;5.20;99.90;;;5.87;100.00;97663.16;10438760;28;20257;-64
2023/11/07 06:15:32;;;;;;;3.57;3.07;;;5.20;99.90;;;5.89;100.00;97675.91;10434678;28;20224;-64
2023/11/07 06:20:36;;;;;;;3.57;3.23;;;5.20;99.90;;;5.88;100.00;97675.03;10429068;28;20229;-64
2023/11/07 06:25:39;;;;;;;4.30;4.00;;;5.20;99.90;;;5.97;100.00;97682.47;10438106;28;20261;-64
2023/11/07 06:30:43;;;;;;;5.63;5.23;;;5.30;99.90;;;5.95;100.00;97685.66;10433010;28;20217;-63
2023/11/07 06:35:49;;;;;;;4.03;3.73;;;5.20;99.90;;;5.97;100.00;97687.53;10432475;28;20276;-64
2023/11/07 06:40:52;;;;;;;4.50;4.20;;;5.20;99.90;;;5.97;100.00;97694.28;10435406;28;20291;-64
2023/11/07 06:45:57;;;;;;;6.10;4.17;;;5.20;99.90;;;6.06;100.00;97700.00;10435286;28;20788;-65
2023/11/07 06:51:02;;;;;;;3.90;3.60;;;5.20;99.90;;;6.00;100.00;97707.16;10430883;28;20729;-65
2023/11/07 06:56:06;;;;;;;4.17;3.73;;;5.10;99.90;;;6.15;100.00;97713.34;10433107;28;20678;-65
2023/11/07 07:01:13;;;;;;;2.67;2.40;;;5.30;99.90;;;6.29;100.00;97707.59;10436529;28;20321;-65
2023/11/07 07:06:18;;;;;;;2.70;2.50;;;5.50;99.90;;;6.67;100.00;97713.63;10433769;28;20584;-65
2023/11/07 07:11:21;;;;;;;2.70;2.60;;;5.90;99.90;;;6.96;100.00;97711.41;10433410;28;20731;-65
2023/11/07 07:16:30;;;;;;;6.80;5.97;;;6.20;99.90;;;7.28;99.68;97704.22;10435701;28;20263;-65
2023/11/07 07:21:34;;;;;;;3.40;3.13;;;6.50;99.90;;;7.44;97.78;97714.63;10439296;28;20228;-66
2023/11/07 07:26:37;;;;;;;3.57;3.00;;;6.70;99.90;;;7.65;97.53;97704.97;10433538;28;20272;-66
2023/11/07 07:31:42;;;;;;;3.20;2.90;;;6.90;99.90;;;7.78;96.86;97701.56;10434844;28;20233;-65
2023/11/07 07:36:47;;;;;;;3.10;2.90;;;7.10;99.90;;;8.08;96.17;97702.69;10427658;28;20230;-66
2023/11/07 07:41:50;;;;;;;4.83;3.67;;;7.60;99.90;;;8.66;95.63;97710.56;10435643;28;20232;-64
2023/11/07 07:46:56;;;;;;;3.43;3.10;;;8.10;99.90;;;8.90;91.44;97707.00;10435237;28;20656;-64
2023/11/07 07:52:01;;;;;;;3.23;3.00;;;8.40;99.90;;;9.32;90.89;97706.91;10425882;28;20225;-65
2023/11/07 07:57:08;;;;;;;3.45;2.38;;;8.80;99.90;;;9.64;87.24;97706.25;10443423;28;20239;-65
2023/11/07 08:02:13;;;;;;;3.40;2.67;;;9.30;99.90;;;10.19;84.52;97711.06;10428541;28;20244;-65
2023/11/07 08:07:16;;;;;;;3.20;2.90;;;9.70;99.90;;;10.86;85.23;97709.69;10433525;28;20224;-64
2023/11/07 08:12:21;;;;;;;9.98;8.98;;;10.30;99.90;;;11.12;80.84;97705.94;10435121;28;20639;-65
2023/11/07 08:17:25;;;;;;;3.80;3.60;;;10.50;99.90;;;11.31;83.00;97699.22;10438445;28;20662;-65
2023/11/07 08:22:29;;;;;;;3.47;3.28;;;10.70;99.90;;;11.48;78.80;97711.22;10440723;28;20229;-65
2023/11/07 08:27:33;;;;;;;2.67;2.47;;;10.80;99.90;;;11.57;76.60;97701.44;10438632;28;20227;-64
2023/11/07 08:32:38;;;;;;;2.30;2.10;;;10.90;99.90;;;11.74;75.08;97699.72;10428771;28;20231;-65
2023/11/07 08:37:41;;;;;;;2.22;2.03;;;11.10;99.90;;;11.75;75.32;97715.94;10432950;28;20763;-64
2023/11/07 08:42:45;;;;;;;2.25;2.05;;;11.10;99.90;;;11.75;72.79;97714.25;10427651;28;20232;-64
2023/11/07 08:47:52;;;;;;;3.38;3.08;;;10.80;99.90;;;11.63;78.39;97708.53;10428938;28;20230;-65
2023/11/07 08:52:57;;;;;;;2.47;2.28;;;10.70;99.90;;;11.27;78.25;97722.09;10429003;28;20241;-66
2023/11/07 08:58:00;;;;;;;2.70;2.50;;;10.40;99.90;;;11.48;77.00;97724.00;10422944;28;20220;-66
2023/11/07 09:03:04;;;;;;;2.58;2.35;;;10.40;99.90;;;11.19;77.35;97728.50;10430615;28;20231;-65
2023/11/07 09:08:08;;;;;;;2.50;2.10;;;10.30;99.90;;;11.11;77.20;97734.88;10431221;28;20236;-66
2023/11/07 09:13:11;;;;;;;2.70;2.50;;;10.30;99.90;;;11.15;76.55;97726.56;10429134;28;20225;-65
2023/11/07 09:18:16;;;;;;;2.42;2.28;;;10.40;99.90;;;11.13;76.16;97733.28;10431150;28;20236;-64
2023/11/07 09:23:19;;;;;;;2.25;2.13;;;10.40;99.90;;;11.32;75.71;97737.66;10445347;28;20318;-64
2023/11/07 09:28:25;;;;;;;2.30;2.10;;;10.50;99.90;;;11.41;76.27;97732.16;10442223;28;20228;-65
2023/11/07 09:33:31;;;;;;;2.10;2.00;;;10.70;99.90;;;11.70;73.56;97724.28;10442798;28;20227;-65
2023/11/07 09:38:34;;;;;;;2.53;2.05;;;10.90;99.90;;;11.73;75.86;97736.34;10443151;28;20232;-66
2023/11/07 09:43:54;;;;;;;2.05;1.95;;;10.90;99.90;;;11.71;76.16;97741.41;10439192;28;20276;-65
2023/11/07 09:49:00;;;;;;;2.38;2.17;;;10.80;99.90;;;11.82;75.37;97736.84;10441913;28;20255;-66
2023/11/07 09:54:05;;;;;;;3.00;2.50;;;10.90;99.90;;;12.05;75.04;97734.56;10432816;28;20312;-66
2023/11/07 09:59:22;;;;;;;4.20;2.22;;;10.90;99.90;;;12.38;73.60;97731.06;10438436;28;20244;-64
2023/11/07 10:04:28;;;;;;;1.80;1.70;;;11.20;99.90;;;12.54;72.41;97730.09;10432812;28;20229;-66
2023/11/07 10:09:32;;;;;;;2.20;1.90;;;11.50;99.90;;;12.79;69.68;97724.44;10436560;28;20249;-65
2023/11/07 10:14:35;;;;;;;1.73;1.63;;;11.90;99.90;;;13.12;69.19;97718.19;10434901;28;20754;-66
2023/11/07 10:19:40;;;;;;;1.70;1.60;;;12.20;99.90;;;13.25;67.08;97720.50;10436554;28;20228;-66
2023/11/07 10:24:44;;;;;;;1.40;1.33;;;12.40;99.90;;;12.99;67.94;97709.97;10436866;28;20882;-65
2023/11/07 10:29:51;;;;;;;2.17;1.52;;;12.10;99.90;;;13.06;65.35;97705.97;10438074;28;21696;-64
2023/11/07 10:35:05;;;;;;;1.50;1.40;;;12.20;99.90;;;13.00;66.15;97704.00;10440979;28;20225;-66
2023/11/07 10:40:11;;;;;;;1.73;1.50;;;12.20;99.90;;;13.06;66.67;97686.31;10434790;28;20643;-64
2023/11/07 10:45:15;;;;;;;1.70;1.60;;;12.10;99.90;;;12.93;66.33;97678.88;10437276;28;20312;-65
2023/11/07 10:50:21;;;;;;;2.38;1.40;;;12.20;99.90;;;12.99;65.63;97673.13;10438813;28;20233;-66
2023/11/07 10:55:24;;;;;;;1.65;1.55;;;12.10;99.90;;;13.20;65.38;97657.81;10441278;28;20248;-67
2023/11/07 11:00:32;;;;;;;2.35;1.67;;;12.30;99.90;;;13.18;65.38;97655.19;10438541;28;20240;-66
2023/11/07 11:05:39;;;;;;;2.03;1.80;;;12.50;99.90;;;13.50;64.93;97654.00;10437113;28;20249;-65
2023/11/07 11:10:44;;;;;;;1.80;1.40;;;12.60;99.90;;;13.40;62.98;97657.03;10434249;28;20233;-64
2023/11/07 11:15:48;;;;;;;1.30;1.20;;;12.70;99.90;;;13.41;64.33;97660.47;10439959;28;20712;-64
2023/11/07 11:21:03;;;;;;;1.40;1.40;;;12.50;99.90;;;13.37;62.97;97656.91;10431431;28;20229;-67
2023/11/07 11:26:21;;;;;;;1.58;1.30;;;12.50;99.90;;;13.32;63.48;97648.09;10440230;28;20597;-66
2023/11/07 11:31:26;;;;;;;1.42;1.38;;;12.50;99.90;;;13.25;63.06;97661.47;10435645;28;20233;-64
2023/11/07 11:36:40;;;;;;;1.38;1.27;;;12.50;99.90;;;13.30;63.98;97647.16;10430332;28;20748;-64
2023/11/07 11:41:56;;;;;;;2.30;1.35;;;12.60;99.90;;;13.24;64.60;97650.31;10439738;28;20235;-66
2023/11/07 11:47:00;;;;;;;3.33;1.40;;;12.70;99.90;;;13.14;67.17;97662.69;10430810;28;20743;-64
2023/11/07 11:52:34;;;;;;;1.27;1.02;;;12.50;99.90;;;12.69;70.85;97665.81;10432368;28;20619;-65
2023/11/07 11:58:10;;;;;;;1.40;1.33;;;12.10;99.90;;;12.50;74.25;97676.03;10431467;28;20316;-66
2023/11/07 12:03:18;;;;;;;1.58;1.48;;;11.80;99.90;;;11.90;79.67;97675.75;10426365;28;20234;-66
2023/11/07 12:08:38;;;;;;;1.48;1.45;;;11.30;99.90;;;11.52;84.16;97684.94;10421501;28;20233;-65
2023/11/07 12:13:42;;;;;;;1.25;1.20;;;11.00;99.90;;;11.47;85.04;97681.28;10435894;28;20312;-64
2023/11/07 12:18:47;;;;;;;1.13;1.13;;;10.90;99.90;;;11.31;85.86;97689.00;10430519;28;20239;-64
2023/11/07 12:23:53;;;;;;;1.50;1.40;;;10.80;99.90;;;11.09;87.64;97687.88;10427850;28;20827;-65
2023/11/07 12:28:57;;;;;;;1.42;1.33;;;10.70;99.90;;;10.95;89.83;97670.94;10426342;28;20224;-64
2023/11/07 12:34:01;;;;;;;1.77;1.63;;;10.50;99.90;;;10.92;90.90;97675.88;10425422;28;20303;-64
2023/11/07 12:39:08;;;;;;;1.40;1.30;;;10.50;99.90;;;10.90;91.21;97678.38;10419063;28;20233;-64
2023/11/07 12:44:14;;;;;;;1.95;1.50;;;10.50;99.90;;;11.00;91.71;97674.59;10419187;28;20232;-64
2023/11/07 12:49:18;;;;;;;1.75;1.67;;;10.50;99.90;;;10.97;91.83;97680.44;10429558;28;20236;-64
2023/11/07 12:54:27;;;;;;;1.80;1.70;;;10.50;99.90;;;11.08;92.40;97677.56;10420909;28;20236;-64
2023/11/07 12:59:32;;;;;;;4.43;2.13;;;10.60;99.90;;;11.15;92.65;97669.41;10420706;28;20611;-64
2023/11/07 13:04:35;;;;;;;3.38;1.90;;;10.70;99.90;;;11.50;89.73;97668.63;10419003;28;20221;-64
2023/11/07 13:09:40;;;;;;;1.60;1.50;;;10.90;99.90;;;11.38;89.85;97670.56;10438934;28;20231;-65
2023/11/07 13:14:43;;;;;;;1.13;1.13;;;10.80;99.90;;;11.27;91.00;97660.69;10428646;28;20591;-64
2023/11/07 13:19:48;;;;;;;1.40;1.33;;;10.80;99.90;;;11.42;90.63;97665.72;10426769;28;20221;-64
2023/11/07 13:24:52;;;;;;;3.15;1.80;;;10.80;99.90;;;11.46;91.20;97653.94;10423936;28;20704;-63
2023/11/07 13:29:55;;;;;;;1.65;1.55;;;10.90;99.90;;;11.63;91.23;97660.78;10425537;28;20241;-63
2023/11/07 13:34:59;;;;;;;1.52;1.45;;;10.90;99.90;;;11.59;90.52;97658.88;10420624;28;20558;-65
2023/11/07 13:40:06;;;;;;;1.50;1.40;;;11.00;99.90;;;11.47;90.95;97655.69;10418596;28;20313;-66
2023/11/07 13:45:10;;;;;;;3.20;3.00;;;10.80;99.90;;;11.32;92.30;97653.22;10425723;28;20620;-64
2023/11/07 13:50:14;;;;;;;3.60;3.30;;;10.70;99.90;;;11.41;90.35;97652.81;10422097;28;20232;-63
2023/11/07 13:55:19;;;;;;;2.08;1.98;;;10.70;99.90;;;11.31;89.72;97658.28;10433039;28;20225;-65
2023/11/07 14:00:23;;;;;;;2.40;2.22;;;10.70;99.90;;;11.41;85.05;97663.94;10424046;28;20272;-63
2023/11/07 14:05:26;;;;;;;2.67;2.15;;;10.80;99.90;;;11.37;83.91;97661.16;10430313;28;20697;-65
2023/11/07 14:10:31;;;;;;;1.60;1.50;;;10.80;99.90;;;11.35;81.63;97668.75;10439130;28;20233;-64
2023/11/07 14:15:35;;;;;;;2.17;2.08;;;10.70;99.90;;;11.21;83.67;97674.84;10440615;28;20248;-64
2023/11/07 14:20:39;;;;;;;2.03;1.75;;;10.60;99.90;;;11.13;83.47;97677.00;10442253;28;20221;-64
2023/11/07 14:25:44;;;;;;;1.70;1.60;;;10.60;99.90;;;11.04;84.59;97689.31;10435837;28;20230;-65
2023/11/07 14:30:47;;;;;;;1.60;1.50;;;10.40;99.90;;;10.92;84.68;97686.13;10430226;28;20225;-66
2023/11/07 14:35:51;;;;;;;1.40;1.30;;;10.40;99.90;;;10.84;86.25;97690.81;10435070;28;20420;-63
2023/11/07 14:40:57;;;;;;;1.95;1.85;;;10.40;99.90;;;10.86;87.07;97690.91;10424758;28;20232;-64
2023/11/07 14:46:00;;;;;;;2.42;2.22;;;10.30;99.90;;;11.03;85.09;97696.09;10437036;28;20324;-63
2023/11/07 14:51:04;;;;;;;1.63;1.60;;;10.40;99.90;;;10.89;84.70;97701.28;10427369;28;20721;-64
2023/11/07 14:56:11;;;;;;;1.70;1.70;;;10.20;99.90;;;10.92;84.96;97704.88;10421699;28;20226;-64
2023/11/07 15:01:14;;;;;;;2.00;1.70;;;10.20;99.90;;;10.83;85.59;97712.94;10430741;28;20714;-64
2023/11/07 15:06:18;;;;;;;1.63;1.52;;;10.20;99.90;;;10.63;86.47;97716.09;10430749;28;20225;-66
2023/11/07 15:11:23;;;;;;;1.67;1.67;;;10.00;99.90;;;10.56;86.68;97714.91;10428063;28;20224;-66
2023/11/07 15:16:26;;;;;;;2.88;2.00;;;10.00;99.90;;;10.27;91.53;97726.09;10429579;28;20225;-65
2023/11/07 15:21:30;;;;;;;2.10;2.00;;;9.70;99.90;;;10.17;93.07;97721.19;10427516;28;20252;-65
2023/11/07 15:26:34;;;;;;;1.90;1.80;;;9.60;99.90;;;10.00;94.87;97725.34;10425705;28;20231;-65
2023/11/07 15:31:38;;;;;;;4.07;3.67;;;9.40;99.90;;;9.95;96.03;97723.34;10428367;28;20228;-65
2023/11/07 15:36:41;;;;;;;3.50;3.05;;;9.30;99.90;;;9.91;97.03;97712.94;10429785;28;20228;-65
2023/11/07 15:41:45;;;;;;;3.15;2.95;;;9.30;99.90;;;9.83;98.58;97714.19;10421842;28;20244;-64
2023/11/07 15:46:49;;;;;;;3.72;3.42;;;9.20;99.90;;;9.68;99.38;97710.75;10421931;28;20217;-65
2023/11/07 15:51:52;;;;;;;3.08;2.92;;;9.10;99.90;;;9.57;99.55;97722.00;10418112;28;20237;-64
2023/11/07 15:56:57;;;;;;;2.35;2.25;;;9.00;99.90;;;9.45;99.36;97735.78;10430631;28;20249;-65
2023/11/07 16:02:00;;;;;;;3.75;3.45;;;8.80;99.90;;;9.35;100.00;97738.56;10428102;28;20313;-65
2023/11/07 16:07:03;;;;;;;4.28;3.97;;;8.70;99.90;;;9.32;100.00;97750.28;10432722;28;20744;-65
2023/11/07 16:12:09;;;;;;;3.38;3.17;;;8.70;99.90;;;9.23;100.00;97748.94;10440415;28;20234;-66
2023/11/07 16:17:12;;;;;;;4.15;3.60;;;8.60;99.90;;;9.17;100.00;97768.09;10425195;28;20668;-65
2023/11/07 16:22:16;;;;;;;3.42;3.08;;;8.50;99.90;;;9.05;100.00;97768.22;10431112;28;20224;-63
2023/11/07 16:27:23;;;;;;;4.40;4.00;;;8.40;99.90;;;9.07;100.00;97773.41;10431675;28;20221;-64
2023/11/07 16:32:26;;;;;;;2.78;2.55;;;8.40;99.90;;;9.05;100.00;97772.44;10437611;28;20604;-62
2023/11/07 16:37:29;;;;;;;5.30;3.20;;;8.40;99.90;;;9.05;100.00;97773.31;10440446;28;20224;-64
2023/11/07 16:42:34;;;;;;;4.50;4.10;;;8.40;99.90;;;9.08;100.00;97793.91;10426909;28;20724;-64
2023/11/07 16:47:38;;;;;;;4.70;4.30;;;8.40;99.90;;;9.17;100.00;97793.59;10426105;28;20567;-64
2023/11/07 16:52:41;;;;;;;3.10;2.90;;;8.50;99.90;;;9.24;100.00;97796.63;10429248;28;20588;-66
2023/11/07 16:57:47;;;;;;;3.28;3.08;;;8.60;99.90;;;9.28;100.00;97802.78;10435116;28;20227;-66
2023/11/07 17:02:50;;;;;;;3.85;3.55;;;8.60;99.90;;;9.38;100.00;97819.50;10437671;28;20719;-65
2023/11/07 17:07:55;;;;;;;4.03;3.83;;;8.60;99.90;;;9.29;100.00;97813.84;10433978;28;20228;-64
2023/11/07 17:13:01;;;;;;;4.17;3.87;;;8.60;99.90;;;9.18;100.00;97824.25;10429486;28;20266;-65
2023/11/07 17:18:04;;;;;;;4.25;3.95;;;8.50;99.90;;;9.15;99.58;97834.28;10422373;28;20225;-66
2023/11/07 17:23:07;;;;;;;4.37;3.97;;;8.50;99.90;;;8.96;100.00;97839.91;10436009;28;20656;-66
2023/11/07 17:28:12;;;;;;;4.97;4.57;;;8.30;99.90;;;8.82;99.98;97840.72;10424932;28;20229;-65
2023/11/07 17:33:15;;;;;;;6.13;5.63;;;8.10;99.90;;;8.63;99.67;97842.88;10422499;28;20236;-65
2023/11/07 17:38:19;;;;;;;8.27;7.47;;;7.90;99.90;;;8.43;99.85;97855.19;10425507;28;20236;-65
2023/11/07 17:43:24;;;;;;;5.27;4.77;;;7.70;99.90;;;8.30;99.14;97857.72;10431413;28;20231;-65
2023/11/07 17:48:28;;;;;;;4.83;4.43;;;7.60;99.90;;;8.26;99.61;97860.81;10434284;28;20231;-66
2023/11/07 17:53:32;;;;;;;8.63;7.80;;;7.60;99.90;;;8.22;100.00;97864.84;10428086;28;20719;-67
2023/11/07 17:58:38;;;;;;;18.00;13.53;;;7.50;99.90;;;8.18;99.99;97867.94;10424662;28;20229;-66
2023/11/07 18:03:42;;;;;;;7.07;6.30;;;7.50;99.90;;;8.05;99.95;97878.09;10433762;28;20229;-66
2023/11/07 18:08:47;;;;;;;3.97;3.67;;;7.40;99.90;;;7.97;99.73;97881.78;10431573;28;20227;-67
2023/11/07 18:13:51;;;;;;;2.90;2.70;;;7.30;99.90;;;7.90;99.64;97885.59;10434593;28;20230;-67
2023/11/07 18:18:55;;;;;;;5.23;4.73;;;7.30;99.90;;;7.85;99.20;97884.41;10438790;28;20334;-65
2023/11/07 18:24:03;;;;;;;7.10;6.40;;;7.20;99.90;;;8.11;98.89;97887.03;10429043;28;20233;-65
2023/11/07 18:29:08;;;;;;;18.20;11.40;;;7.40;99.90;;;8.22;99.75;97887.75;10434005;28;20267;-66
2023/11/07 18:34:11;;;;;;;19.80;15.03;;;7.50;99.90;;;8.21;100.00;97887.63;10431485;28;20563;-66
2023/11/07 18:39:25;;;;;;;13.90;12.57;;;7.60;99.90;;;8.36;100.00;97888.66;10442643;28;20257;-67
2023/11/07 18:44:34;;;;;;;9.70;8.70;;;7.70;99.90;;;8.34;100.00;97890.22;10438680;28;20229;-67
2023/11/07 18:49:38;;;;;;;16.07;14.37;;;7.70;99.90;;;8.32;100.00;97891.78;10427752;28;20253;-66
2023/11/07 18:54:41;;;;;;;6.37;5.80;;;7.70;99.90;;;8.39;100.00;97899.09;10423832;28;20225;-66
2023/11/07 18:59:47;;;;;;;12.27;10.23;;;7.60;99.90;;;8.34;100.00;97910.59;10425495;28;20255;-66
2023/11/07 19:04:51;;;;;;;7.07;6.47;;;7.70;99.90;;;8.40;100.00;97898.28;10423727;28;20312;-66
2023/11/07 19:09:55;;;;;;;3.07;2.87;;;7.70;99.90;;;8.60;98.60;97911.47;10422907;28;20232;-66
2023/11/07 19:14:59;;;;;;;3.30;3.00;;;7.80;99.90;;;8.53;98.50;97905.97;10431472;28;20697;-66
2023/11/07 19:20:03;;;;;;;4.40;4.10;;;7.90;99.90;;;8.67;97.18;97927.25;10423988;28;20229;-69
2023/11/07 19:25:08;;;;;;;4.33;4.03;;;7.90;99.90;;;8.56;97.42;97928.22;10427793;28;20319;-67
2023/11/07 19:30:14;;;;;;;3.50;3.20;;;7.90;99.90;;;8.52;98.07;97939.84;10428108;28;20494;-67
2023/11/07 19:35:17;;;;;;;4.03;3.70;;;7.90;99.90;;;8.52;97.25;97937.28;10417484;28;20245;-66
2023/11/07 19:40:22;;;;;;;4.87;4.43;;;7.90;99.90;;;8.48;96.85;97932.78;10422973;28;20225;-67
2023/11/07 19:45:27;;;;;;;4.23;3.97;;;7.90;99.90;;;8.48;97.32;97944.66;10423999;28;20229;-68
2023/11/07 19:50:32;;;;;;;3.83;3.53;;;7.80;99.90;;;8.50;96.38;97949.06;10422300;28;20226;-67
2023/11/07 19:55:36;;;;;;;3.30;3.10;;;7.80;99.90;;;8.52;95.93;97938.97;10434871;28;20252;-68
2023/11/07 20:00:42;;;;;;;4.07;3.00;;;7.90;99.90;;;8.52;95.46;97946.59;10420330;28;20226;-65
2023/11/07 20:05:47;;;;;;;3.03;2.70;;;7.80;99.90;;;8.50;95.81;97949.06;10423446;28;20248;-66
2023/11/07 20:10:50;;;;;;;3.30;3.10;;;7.90;99.90;;;8.53;95.16;97962.00;10419407;28;20229;-67
2023/11/07 20:15:55;;;;;;;3.73;3.43;;;7.80;99.90;;;8.47;94.95;97969.25;10422086;28;20233;-67
2023/11/07 20:20:58;;;;;;;3.33;3.13;;;7.80;99.90;;;8.27;95.38;97974.59;10419563;28;20235;-65
2023/11/07 20:26:04;;;;;;;3.83;3.10;;;7.60;99.90;;;8.13;95.33;97972.03;10425406;28;20678;-67
2023/11/07 20:31:08;;;;;;;3.93;3.60;;;7.40;99.90;;;8.00;95.43;97982.13;10427495;28;20226;-65
2023/11/07 20:36:16;;;;;;;4.60;4.20;;;7.30;99.90;;;7.98;96.18;97983.69;10424902;28;20727;-65
2023/11/07 20:41:20;;;;;;;4.47;4.07;;;7.30;99.90;;;7.99;96.22;97989.69;10427504;28;20290;-67
2023/11/07 20:46:25;;;;;;;3.60;3.07;;;7.30;99.90;;;8.09;95.19;97997.16;10425165;28;20299;-67
2023/11/07 20:51:38;;;;;;;4.07;3.57;;;7.40;99.90;;;8.05;95.34;97996.06;10425697;28;20712;-67
2023/11/07 20:56:41;;;;;;;4.27;3.97;;;7.40;99.90;;;8.13;94.93;97997.47;10422257;28;20232;-67
2023/11/07 21:01:46;;;;;;;10.27;7.50;;;7.50;99.90;;;8.25;94.21;97997.44;10428034;28;20230;-68
2023/11/07 21:06:51;;;;;;;8.90;5.83;;;7.50;99.90;;;8.29;93.46;97985.78;10429370;28;20700;-67
2023/11/07 21:11:54;;;;;;;4.57;4.17;;;7.50;99.90;;;8.31;92.72;97994.41;10430866;28;20238;-66
2023/11/07 21:17:00;;;;;;;3.93;2.90;;;7.50;99.90;;;8.28;93.41;97996.75;10434071;28;20213;-67